Weerstation
Sluispark-LeuvenLeuven-Sluispark

Weerstation
Wilsele-PutkapelWilsele-Putkapel



Nabijgelegen vliegvelden - METAR rapporten

   
EBBR - Wilsele bij Leuven
Gewijzigd: 04-03-2021 15:20
Lichte (mot)regen, Nevel, Grotendeels bewolkt    Wind: NNW 11.1 km/h
Lichte (mot)regen, Nevel, Grotendeels bewolkt
Wind: Wind: NNW 11.1 km/h
Temperatuur: 5°C
Voelt als: 2°C
Dauwpunt: 4°C
Vochtigheid: 93%
Barometer: 1021 hPa
Bewolking: Grotendeels bewolkt
Zicht: 2 km
Bewolking: Gedeeltelijk bewolkt 91.4 m,
Grotendeels bewolkt 152.4 m
EBBR 041420Z 34006KT 310V020 2400 -DZ BR SCT003 BKN005 05/04 Q1021 TEMPO 1400 BR BKN003
EBAW - Antwerp
Gewijzigd: 04-03-2021 15:20
Nevel, Grotendeels bewolkt    Wind: Noorden 13 km/h
Nevel, Grotendeels bewolkt
Wind: Wind: Noorden 13 km/h
Temperatuur: 5°C
Voelt als: 2°C
Dauwpunt: 3°C
Vochtigheid: 87%
Barometer: 1021 hPa
Bewolking: Grotendeels bewolkt
Zicht: 3 km
Bewolking: Gedeeltelijk bewolkt 182.9 m,
Grotendeels bewolkt 213.4 m
EBAW 041420Z 36007KT 330V030 3000 BR SCT006 BKN007 05/03 Q1021 NOSIG
EBLG - Li├Ęge
Gewijzigd: 04-03-2021 15:20
Wat regen mogelijk, Grotendeels bewolkt    Wind: NNW 11.1 km/h
Wat regen mogelijk, Grotendeels bewolkt
Wind: Wind: NNW 11.1 km/h
Temperatuur: 5°C
Voelt als: 2°C
Dauwpunt: 4°C
Vochtigheid: 93%
Barometer: 1020 hPa
Bewolking: Grotendeels bewolkt
Zicht: 5 km
Bewolking: Licht bewolkt 121.9 m,
Grotendeels bewolkt 182.9 m
EBLG 041420Z 34006KT 310V010 5000 -RA FEW004 BKN006 05/04 Q1020 TEMPO 2000 RADZ BKN004
EBCV - Mons/Bergen
Gewijzigd: 04-03-2021 15:25
Wat regen mogelijk, Bewolking    Wind: NNW 16.7 km/h
Wat regen mogelijk, Bewolking
Wind: Wind: NNW 16.7 km/h
Temperatuur: 6°C
Voelt als: 3°C
Dauwpunt: 5°C
Vochtigheid: 93%
Barometer: 1021 hPa
Bewolking: Bewolking
Zicht: 4 km
Bewolking: Bewolking 182.9 m
EBCV 041425Z AUTO 34009KT 4000 -RA OVC006/// 06/05 Q1021 YLO
EHBK - Maastricht
Gewijzigd: 04-03-2021 15:25
Wat regen mogelijk, Grotendeels bewolkt    Wind: Noorden 11.1 km/h
Wat regen mogelijk, Grotendeels bewolkt
Wind: Wind: Noorden 11.1 km/h
Temperatuur: 5°C
Voelt als: 2°C
Dauwpunt: 4°C
Vochtigheid: 93%
Barometer: 1020 hPa
Bewolking: Grotendeels bewolkt
Zicht: 5 km
Bewolking: Gedeeltelijk bewolkt 61 m,
Grotendeels bewolkt 121.9 m,
Grotendeels bewolkt 182.9 m
EHBK 041425Z AUTO 35006KT 320V030 5000 -RA SCT002 BKN004 BKN006 05/04 Q1020 TEMPO 4000 BR BKN006
ELLX - Luxemburg
Gewijzigd: 04-03-2021 15:20
Grotendeels bewolkt    Wind: Westen 16.7 km/h
Grotendeels bewolkt
Wind: Wind: Westen 16.7 km/h
Temperatuur: 9°C
Voelt als: 7°C
Dauwpunt: 7°C
Vochtigheid: 87%
Barometer: 1017 hPa
Bewolking: Grotendeels bewolkt
Zicht: meer dan 10 km
Bewolking: Gedeeltelijk bewolkt 1005.8 m,
Grotendeels bewolkt 1524 m
ELLX 041420Z 28009KT 230V300 9999 SCT033 BKN050 09/07 Q1017 TEMPO SHRA
EBOS - Oostende
Gewijzigd: 04-03-2021 15:20
Nevel, Lichte (mot)regen, Grotendeels bewolkt    Wind: NNO 24.1 km/h
Nevel, Lichte (mot)regen, Grotendeels bewolkt
Wind: Wind: NNO 24.1 km/h
Temperatuur: 4°C
Voelt als: -1°C
Dauwpunt: 3°C
Vochtigheid: 93%
Barometer: 1022 hPa
Bewolking: Grotendeels bewolkt
Zicht: 2 km
Bewolking: Grotendeels bewolkt 121.9 m
EBOS 041420Z 03013KT 2000 BR -DZ BKN004 04/03 Q1022 BECMG 4000 -RADZ SCT004 BKN006
  

Script ontwikkeld door  Saratoga-weather.org Aangepast voor de template door  Weerstation Leuven

U vindt ons ook hier:

UK Metoffice

WeatherCloud

European Weather Network

Weather Underground

Benelux Weather Network

AWEKAS

WeatherlinkIP

HAMweather, WeatherForYou, PWS Weather

Het Weer Aktueel

Apparatuur in gebruik:

Weer-station
Davis VP2 weatherstation

Weer-programma
Meteobridge

Weer-computer
D-Link DIR-505

Webleverancier
Robohost

Davis VP2 weatherstation

Meteobridge

D-Link DIR-505

Robohost